createdAt,value
2018-11-05T00:00:23.796Z,8.50
2018-11-05T00:02:52.803Z,8.40
2018-11-05T00:05:21.754Z,8.40
2018-11-05T00:07:50.519Z,8.30
2018-11-05T00:10:18.698Z,8.30
2018-11-05T00:12:46.982Z,8.30
2018-11-05T00:15:15.294Z,8.20
2018-11-05T00:17:43.531Z,8.20
2018-11-05T00:20:11.991Z,8.20
2018-11-05T00:22:40.211Z,8.20
2018-11-05T00:25:10.017Z,8.20
2018-11-05T00:27:38.210Z,8.20
2018-11-05T00:30:07.366Z,8.20
2018-11-05T00:32:35.606Z,8.20
2018-11-05T00:35:03.830Z,8.20
2018-11-05T00:37:33.259Z,8.20
2018-11-05T00:40:01.476Z,8.20
2018-11-05T00:42:29.710Z,8.20
2018-11-05T00:44:58.059Z,8.20
2018-11-05T00:47:26.239Z,8.20
2018-11-05T00:49:54.423Z,8.30
2018-11-05T00:52:23.194Z,8.20
2018-11-05T00:54:51.447Z,8.10
2018-11-05T00:57:19.642Z,8.10
2018-11-05T00:59:47.960Z,8.10
2018-11-05T01:02:16.140Z,8.10
2018-11-05T01:04:44.315Z,8.20
2018-11-05T01:07:12.510Z,8.10
2018-11-05T01:09:40.683Z,8.10
2018-11-05T01:12:08.878Z,8.10
2018-11-05T01:14:37.606Z,8.10
2018-11-05T01:17:05.893Z,8.00
2018-11-05T01:19:34.151Z,8.00
2018-11-05T01:22:02.379Z,8.00
2018-11-05T01:24:30.559Z,8.00
2018-11-05T01:26:58.738Z,8.00
2018-11-05T01:29:26.959Z,8.00
2018-11-05T01:31:55.130Z,8.10
2018-11-05T01:34:23.315Z,8.00
2018-11-05T01:36:51.879Z,8.10
2018-11-05T01:39:20.071Z,8.10
2018-11-05T01:41:48.262Z,8.10
2018-11-05T01:44:16.466Z,8.10
2018-11-05T01:46:44.645Z,8.00
2018-11-05T01:49:12.842Z,8.00
2018-11-05T01:51:43.070Z,8.00
2018-11-05T01:54:11.242Z,8.00
2018-11-05T01:56:39.428Z,7.90
2018-11-05T01:59:08.137Z,7.90
2018-11-05T02:01:36.342Z,7.80
2018-11-05T02:04:04.824Z,7.80
2018-11-05T02:06:34.179Z,7.80
2018-11-05T02:09:02.350Z,7.70
2018-11-05T02:11:30.544Z,7.70
2018-11-05T02:13:58.751Z,7.70
2018-11-05T02:16:26.927Z,7.70
2018-11-05T02:18:55.151Z,7.60
2018-11-05T02:21:23.730Z,7.60
2018-11-05T02:23:51.910Z,7.60
2018-11-05T02:26:20.112Z,7.50
2018-11-05T02:28:48.354Z,7.50
2018-11-05T02:31:16.555Z,7.50
2018-11-05T02:33:44.763Z,7.50
2018-11-05T02:36:12.986Z,7.50
2018-11-05T02:38:41.162Z,7.50
2018-11-05T02:41:09.360Z,7.40
2018-11-05T02:43:38.014Z,7.40
2018-11-05T02:46:06.187Z,7.40
2018-11-05T02:48:34.694Z,7.50
2018-11-05T02:51:02.923Z,7.40
2018-11-05T02:53:31.095Z,7.40
2018-11-05T02:55:59.274Z,7.40
2018-11-05T02:58:28.699Z,7.20
2018-11-05T03:00:57.536Z,7.10
2018-11-05T03:03:25.748Z,7.00
2018-11-05T03:05:54.231Z,6.90
2018-11-05T03:08:22.524Z,6.80
2018-11-05T03:10:50.715Z,6.80
2018-11-05T03:13:19.276Z,6.80
2018-11-05T03:15:47.450Z,6.80
2018-11-05T03:18:16.272Z,6.70
2018-11-05T03:20:44.582Z,6.70
2018-11-05T03:23:12.943Z,6.70
2018-11-05T03:25:41.130Z,6.70
2018-11-05T03:28:09.434Z,6.70
2018-11-05T03:30:37.607Z,6.70
2018-11-05T03:33:05.834Z,6.70
2018-11-05T03:35:34.440Z,6.60
2018-11-05T03:38:03.107Z,6.60
2018-11-05T03:40:31.288Z,6.50
2018-11-05T03:42:59.783Z,6.40
2018-11-05T03:45:27.959Z,6.40
2018-11-05T03:47:56.130Z,6.40
2018-11-05T03:50:24.687Z,6.40
2018-11-05T03:52:52.886Z,6.40
2018-11-05T03:55:21.096Z,6.40
2018-11-05T03:57:49.298Z,6.40
2018-11-05T04:00:18.172Z,6.40
2018-11-05T04:02:46.347Z,6.50
2018-11-05T04:05:16.399Z,6.50
2018-11-05T04:07:44.591Z,6.40
2018-11-05T04:10:13.548Z,6.50
2018-11-05T04:12:41.751Z,6.40
2018-11-05T04:15:10.163Z,6.50
2018-11-05T04:17:38.332Z,6.50
2018-11-05T04:20:08.798Z,6.50
2018-11-05T04:22:36.970Z,6.50
2018-11-05T04:25:05.302Z,6.60
2018-11-05T04:27:33.586Z,6.60
2018-11-05T04:30:01.767Z,6.60
2018-11-05T04:32:29.948Z,6.60
2018-11-05T04:34:58.179Z,6.60
2018-11-05T04:37:26.352Z,6.60
2018-11-05T04:39:54.555Z,6.60
2018-11-05T04:42:22.808Z,6.60
2018-11-05T04:44:51.013Z,6.60
2018-11-05T04:47:19.196Z,6.70
2018-11-05T04:49:47.918Z,6.70
2018-11-05T04:52:16.115Z,6.80
2018-11-05T04:54:44.286Z,6.80
2018-11-05T04:57:12.506Z,6.80
2018-11-05T04:59:40.698Z,6.80
2018-11-05T05:02:08.897Z,6.80
2018-11-05T05:04:37.674Z,6.80
2018-11-05T05:07:06.153Z,6.90
2018-11-05T05:09:34.798Z,6.90
2018-11-05T05:12:03.644Z,7.00
2018-11-05T05:14:34.610Z,7.10
2018-11-05T05:17:02.846Z,7.10
2018-11-05T05:19:31.074Z,7.20
2018-11-05T05:21:59.250Z,7.20
2018-11-05T05:24:27.452Z,7.20
2018-11-05T05:26:55.891Z,7.20
2018-11-05T05:29:24.071Z,7.20
2018-11-05T05:31:52.256Z,7.30
2018-11-05T05:34:21.203Z,7.30
2018-11-05T05:36:49.374Z,7.30
2018-11-05T05:39:17.555Z,7.30
2018-11-05T05:41:45.783Z,7.30
2018-11-05T05:44:13.994Z,7.30
2018-11-05T05:46:42.178Z,7.30
2018-11-05T05:49:10.860Z,7.30
2018-11-05T05:51:39.038Z,7.30
2018-11-05T05:54:07.249Z,7.40
2018-11-05T05:56:35.791Z,7.40
2018-11-05T05:59:04.013Z,7.40
2018-11-05T06:01:32.220Z,7.40
2018-11-05T06:04:01.147Z,7.50
2018-11-05T06:06:29.364Z,7.50
2018-11-05T06:08:57.506Z,7.60
2018-11-05T06:11:26.043Z,7.60
2018-11-05T06:13:54.255Z,7.70
2018-11-05T06:16:22.438Z,7.70
2018-11-05T06:18:50.687Z,7.70
2018-11-05T06:21:18.860Z,7.70
2018-11-05T06:23:47.036Z,7.80
2018-11-05T06:26:15.759Z,7.70
2018-11-05T06:28:44.097Z,7.80
2018-11-05T06:31:12.247Z,7.70
2018-11-05T06:33:41.075Z,7.70
2018-11-05T06:36:09.373Z,7.70
2018-11-05T06:38:37.546Z,7.70
2018-11-05T06:41:06.904Z,7.70
2018-11-05T06:43:35.740Z,7.70
2018-11-05T06:46:03.918Z,7.70
2018-11-05T06:48:32.670Z,7.70
2018-11-05T06:51:00.858Z,7.70
2018-11-05T06:53:29.048Z,7.70
2018-11-05T06:55:57.359Z,7.70
2018-11-05T06:58:25.575Z,7.70
2018-11-05T07:00:53.750Z,7.80
2018-11-05T07:03:22.858Z,7.80
2018-11-05T07:05:51.181Z,7.80
2018-11-05T07:08:19.310Z,7.80
2018-11-05T07:10:47.526Z,7.90
2018-11-05T07:13:15.715Z,7.90
2018-11-05T07:15:43.898Z,7.90
2018-11-05T07:18:12.526Z,8.00
2018-11-05T07:20:40.705Z,8.00
2018-11-05T07:23:08.882Z,8.00
2018-11-05T07:25:37.079Z,8.00
2018-11-05T07:28:05.413Z,8.00
2018-11-05T07:30:33.658Z,8.00
2018-11-05T07:33:02.492Z,8.00
2018-11-05T07:35:30.684Z,8.00
2018-11-05T07:37:58.873Z,8.00
2018-11-05T07:40:27.827Z,8.00
2018-11-05T07:42:56.016Z,8.00
2018-11-05T07:45:24.643Z,8.00
2018-11-05T07:47:53.504Z,8.00
2018-11-05T07:50:22.388Z,8.00
2018-11-05T07:52:51.114Z,8.10
2018-11-05T07:55:20.056Z,8.10
2018-11-05T07:57:49.125Z,8.10
2018-11-05T08:00:22.952Z,8.10
2018-11-05T08:02:53.601Z,8.10
2018-11-05T08:05:22.510Z,8.20
2018-11-05T08:07:50.866Z,8.20
2018-11-05T08:10:19.042Z,8.20
2018-11-05T08:12:47.966Z,8.20
2018-11-05T08:15:19.426Z,8.30
2018-11-05T08:17:48.803Z,8.30
2018-11-05T08:20:17.006Z,8.30
2018-11-05T08:22:45.206Z,8.30
2018-11-05T08:25:14.178Z,8.30
2018-11-05T08:27:42.374Z,8.40
2018-11-05T08:30:15.306Z,8.40
2018-11-05T08:32:43.587Z,8.40
2018-11-05T08:35:12.504Z,8.50
2018-11-05T08:37:41.481Z,8.50
2018-11-05T08:40:11.711Z,8.60
2018-11-05T08:42:40.335Z,8.60
2018-11-05T08:45:08.743Z,8.70
2018-11-05T08:47:36.955Z,8.80
2018-11-05T08:50:05.815Z,8.90
2018-11-05T08:52:34.499Z,9.00
2018-11-05T08:55:02.706Z,9.10
2018-11-05T08:57:30.936Z,9.20
2018-11-05T08:59:59.154Z,9.20
2018-11-05T09:02:27.619Z,9.40
2018-11-05T09:04:55.891Z,9.40
2018-11-05T09:07:24.130Z,9.50
2018-11-05T09:09:52.512Z,9.50
2018-11-05T09:12:20.696Z,9.60
2018-11-05T09:14:49.147Z,9.50
2018-11-05T09:17:17.327Z,9.60
2018-11-05T09:19:45.514Z,9.60
2018-11-05T09:22:13.818Z,9.60
2018-11-05T09:24:42.051Z,9.60
2018-11-05T09:27:10.194Z,9.70
2018-11-05T09:29:38.423Z,9.80
2018-11-05T09:32:07.347Z,9.90
2018-11-05T09:34:35.607Z,9.90
2018-11-05T09:37:03.921Z,9.90
2018-11-05T09:39:32.105Z,10.20
2018-11-05T09:42:00.286Z,10.40
2018-11-05T09:44:28.666Z,10.50
2018-11-05T09:46:56.875Z,10.50
2018-11-05T09:49:25.076Z,10.60
2018-11-05T09:51:53.735Z,10.70
2018-11-05T09:54:21.930Z,10.80
2018-11-05T09:56:50.123Z,10.90
2018-11-05T09:59:18.454Z,11.00
2018-11-05T10:01:46.654Z,11.30
2018-11-05T10:04:14.943Z,11.30
2018-11-05T10:06:43.066Z,11.40
2018-11-05T10:09:12.326Z,11.20
2018-11-05T10:11:40.510Z,11.20
2018-11-05T10:14:09.037Z,11.40
2018-11-05T10:18:59.411Z,11.50
2018-11-05T10:21:27.626Z,11.60
2018-11-05T10:23:55.831Z,11.70
2018-11-05T10:26:24.427Z,11.70
2018-11-05T10:28:52.638Z,11.60
2018-11-05T10:31:25.970Z,11.60
2018-11-05T10:33:54.735Z,11.70
2018-11-05T10:36:23.199Z,11.80
2018-11-05T10:38:51.383Z,12.10
2018-11-05T10:41:20.147Z,12.10
2018-11-05T10:43:48.422Z,12.00
2018-11-05T10:46:16.697Z,12.00
2018-11-05T10:48:45.659Z,11.90
2018-11-05T10:51:13.940Z,11.80
2018-11-05T10:53:42.032Z,12.00
2018-11-05T10:56:10.536Z,12.20
2018-11-05T10:58:38.819Z,12.30
2018-11-05T11:01:14.294Z,12.40
2018-11-05T11:03:47.145Z,12.20
2018-11-05T11:06:15.574Z,12.20
2018-11-05T11:08:43.746Z,12.30
2018-11-05T11:11:11.919Z,12.20
2018-11-05T11:13:40.119Z,12.10
2018-11-05T11:16:08.310Z,11.80
2018-11-05T11:18:36.511Z,12.00
2018-11-05T11:21:05.571Z,11.80
2018-11-05T11:23:33.751Z,11.70
2018-11-05T11:26:01.943Z,11.80
2018-11-05T11:28:30.368Z,11.90
2018-11-05T11:30:58.939Z,11.80
2018-11-05T11:33:27.128Z,11.90
2018-11-05T11:35:55.923Z,12.00
2018-11-05T11:38:24.235Z,11.80
2018-11-05T11:40:52.426Z,11.70
2018-11-05T11:43:21.059Z,11.70
2018-11-05T11:45:49.279Z,11.60
2018-11-05T11:48:17.435Z,11.60
2018-11-05T11:50:45.911Z,11.50
2018-11-05T11:53:14.211Z,11.60
2018-11-05T11:55:42.910Z,11.70
2018-11-05T11:58:11.639Z,11.60
2018-11-05T12:00:39.822Z,11.70
2018-11-05T12:03:08.027Z,11.60
2018-11-05T12:05:39.181Z,11.50
2018-11-05T12:08:07.388Z,11.40
2018-11-05T12:10:35.585Z,11.60
2018-11-05T12:13:03.990Z,11.50
2018-11-05T12:15:32.179Z,11.50
2018-11-05T12:18:00.359Z,11.40
2018-11-05T12:20:28.950Z,11.40
2018-11-05T12:22:57.111Z,11.40
2018-11-05T12:25:25.363Z,11.30
2018-11-05T12:27:54.319Z,11.30
2018-11-05T12:30:23.477Z,11.20
2018-11-05T12:32:52.638Z,11.20
2018-11-05T12:35:20.860Z,11.10
2018-11-05T12:37:50.285Z,11.10
2018-11-05T12:40:19.542Z,11.00
2018-11-05T12:42:49.227Z,10.90
2018-11-05T12:45:17.507Z,10.90
2018-11-05T12:47:45.705Z,10.80
2018-11-05T12:50:16.162Z,10.80
2018-11-05T12:52:45.388Z,10.80
2018-11-05T12:55:13.598Z,10.80
2018-11-05T12:57:42.268Z,10.80
2018-11-05T13:00:14.399Z,10.80
2018-11-05T13:02:43.339Z,10.80
2018-11-05T13:05:12.565Z,10.80
2018-11-05T13:07:40.885Z,10.80
2018-11-05T13:10:10.701Z,10.70
2018-11-05T13:12:39.074Z,10.80
2018-11-05T13:15:07.718Z,10.80
2018-11-05T13:17:36.263Z,10.80
2018-11-05T13:20:04.535Z,10.80
2018-11-05T13:22:33.731Z,10.70
2018-11-05T13:25:01.911Z,10.80
2018-11-05T13:27:30.134Z,10.70
2018-11-05T13:29:58.329Z,10.70
2018-11-05T13:32:26.568Z,10.70
2018-11-05T13:34:55.220Z,10.70
2018-11-05T13:37:23.720Z,10.80
2018-11-05T13:39:51.648Z,10.80
2018-11-05T13:42:19.912Z,10.80
2018-11-05T13:44:48.143Z,10.90
2018-11-05T13:47:17.082Z,10.90
2018-11-05T13:49:44.847Z,11.00
2018-11-05T13:52:13.040Z,11.10
2018-11-05T13:54:41.581Z,11.10
2018-11-05T13:57:09.683Z,11.10
2018-11-05T13:59:37.870Z,11.10
2018-11-05T14:02:06.131Z,11.20
2018-11-05T14:04:34.922Z,11.20
2018-11-05T14:07:03.110Z,11.20
2018-11-05T14:09:31.708Z,11.20
2018-11-05T14:11:59.935Z,11.20
2018-11-05T14:14:28.123Z,11.20
2018-11-05T14:16:56.960Z,11.20
2018-11-05T14:19:25.138Z,11.30
2018-11-05T14:21:53.359Z,11.30
2018-11-05T14:24:21.562Z,11.30
2018-11-05T14:26:49.808Z,11.20
2018-11-05T14:29:18.396Z,11.20
2018-11-05T14:31:46.515Z,11.20
2018-11-05T14:34:14.737Z,11.20
2018-11-05T14:36:43.019Z,11.20
2018-11-05T14:39:14.583Z,11.20
2018-11-05T14:41:43.047Z,11.30
2018-11-05T14:44:12.994Z,11.20
2018-11-05T14:46:41.686Z,11.20
2018-11-05T14:49:14.441Z,11.30
2018-11-05T14:51:42.851Z,11.30
2018-11-05T14:54:11.037Z,11.30
2018-11-05T14:56:39.219Z,11.30
2018-11-05T14:59:08.211Z,11.30
2018-11-05T15:01:36.411Z,11.20
2018-11-05T15:04:04.743Z,11.30
2018-11-05T15:06:34.634Z,11.30
2018-11-05T15:09:02.893Z,11.30
2018-11-05T15:11:31.091Z,11.30
2018-11-05T15:13:59.303Z,11.30
2018-11-05T15:16:27.489Z,11.20
2018-11-05T15:18:55.825Z,11.20
2018-11-05T15:21:24.984Z,11.20
2018-11-05T15:23:53.779Z,11.10
2018-11-05T15:26:22.043Z,11.10
2018-11-05T15:28:50.610Z,11.10
2018-11-05T15:31:18.839Z,11.10
2018-11-05T15:33:47.134Z,11.10
2018-11-05T15:36:15.676Z,11.10
2018-11-05T15:38:43.867Z,11.10
2018-11-05T15:41:12.067Z,11.00
2018-11-05T15:43:40.900Z,11.00
2018-11-05T15:46:09.366Z,11.00
2018-11-05T15:48:37.630Z,11.00
2018-11-05T15:51:06.771Z,11.00
2018-11-05T15:53:35.163Z,11.00
2018-11-05T15:56:03.131Z,11.00
2018-11-05T15:58:31.346Z,11.00
2018-11-05T16:00:59.681Z,11.00
2018-11-05T16:03:27.933Z,11.00
2018-11-05T16:05:56.603Z,11.00
2018-11-05T16:08:25.015Z,11.00
2018-11-05T16:10:55.094Z,11.00
2018-11-05T16:13:23.306Z,10.90
2018-11-05T16:15:51.515Z,10.90
2018-11-05T16:18:19.755Z,10.90
2018-11-05T16:20:48.254Z,10.90
2018-11-05T16:23:16.460Z,10.90
2018-11-05T16:25:44.719Z,10.90
2018-11-05T16:28:12.951Z,10.90
2018-11-05T16:30:41.275Z,10.90
2018-11-05T16:33:09.395Z,10.90
2018-11-05T16:35:38.525Z,10.90
2018-11-05T16:38:06.651Z,10.90
2018-11-05T16:40:34.866Z,10.80
2018-11-05T16:43:03.535Z,10.80
2018-11-05T16:45:31.747Z,10.80
2018-11-05T16:48:00.536Z,10.70
2018-11-05T16:50:29.582Z,10.70
2018-11-05T16:52:57.874Z,10.70
2018-11-05T16:55:26.106Z,10.60
2018-11-05T16:57:54.894Z,10.60
2018-11-05T17:00:23.038Z,10.50
2018-11-05T17:02:51.242Z,10.50
2018-11-05T17:05:19.722Z,10.50
2018-11-05T17:07:48.035Z,10.40
2018-11-05T17:10:16.486Z,10.40
2018-11-05T17:12:46.446Z,10.30
2018-11-05T17:15:15.768Z,10.30
2018-11-05T17:17:44.260Z,10.20
2018-11-05T17:20:18.804Z,10.20
2018-11-05T17:22:47.010Z,10.20
2018-11-05T17:25:16.511Z,10.10
2018-11-05T17:27:45.941Z,10.00
2018-11-05T17:30:16.895Z,10.00
2018-11-05T17:32:45.505Z,10.00
2018-11-05T17:35:15.177Z,10.00
2018-11-05T17:37:44.077Z,10.00
2018-11-05T17:40:14.950Z,9.90
2018-11-05T17:42:43.386Z,9.90
2018-11-05T17:45:12.915Z,9.80
2018-11-05T17:47:41.675Z,9.80
2018-11-05T17:50:12.124Z,9.80
2018-11-05T17:52:40.638Z,9.80
2018-11-05T17:55:09.765Z,9.70
2018-11-05T17:57:37.971Z,9.70
2018-11-05T18:00:08.497Z,9.70
2018-11-05T18:02:37.163Z,9.70
2018-11-05T18:05:05.715Z,9.70
2018-11-05T18:07:33.899Z,9.60
2018-11-05T18:10:02.527Z,9.60
2018-11-05T18:12:30.722Z,9.60
2018-11-05T18:14:59.270Z,9.60
2018-11-05T18:17:27.530Z,9.50
2018-11-05T18:19:55.716Z,9.50
2018-11-05T18:22:24.251Z,9.50
2018-11-05T18:24:53.220Z,9.50
2018-11-05T18:27:21.403Z,9.40
2018-11-05T18:29:50.259Z,9.40
2018-11-05T18:32:23.925Z,9.40
2018-11-05T18:34:54.352Z,9.40
2018-11-05T18:37:22.522Z,9.30
2018-11-05T18:39:51.703Z,9.30
2018-11-05T18:42:19.914Z,9.30
2018-11-05T18:44:56.957Z,9.30
2018-11-05T18:51:05.764Z,9.30
2018-11-05T18:53:34.622Z,9.30
2018-11-05T18:56:02.851Z,9.20
2018-11-05T18:58:31.082Z,9.20
2018-11-05T19:00:59.267Z,9.20
2018-11-05T19:03:27.582Z,9.30
2018-11-05T19:05:58.490Z,9.20
2018-11-05T19:08:26.666Z,9.30
2018-11-05T19:10:54.867Z,9.30
2018-11-05T19:13:24.016Z,9.30
2018-11-05T19:15:52.277Z,9.20
2018-11-05T19:18:21.265Z,9.30
2018-11-05T19:20:49.552Z,9.30
2018-11-05T19:23:17.998Z,9.30
2018-11-05T19:25:46.237Z,9.30
2018-11-05T19:28:15.153Z,9.30
2018-11-05T19:30:44.173Z,9.20
2018-11-05T19:33:12.278Z,9.20
2018-11-05T19:35:41.437Z,9.20
2018-11-05T19:38:09.631Z,9.20
2018-11-05T19:40:37.954Z,9.20
2018-11-05T19:43:06.490Z,9.20
2018-11-05T19:45:34.639Z,9.20
2018-11-05T19:48:02.830Z,9.20
2018-11-05T19:50:31.359Z,9.20
2018-11-05T19:52:59.635Z,9.20
2018-11-05T19:55:27.843Z,9.20
2018-11-05T19:57:56.615Z,9.20
2018-11-05T20:00:27.669Z,9.20
2018-11-05T20:02:56.865Z,9.20
2018-11-05T20:05:25.128Z,9.20
2018-11-05T20:07:54.027Z,9.20
2018-11-05T20:10:22.643Z,9.10
2018-11-05T20:12:50.943Z,9.10
2018-11-05T20:15:19.284Z,9.10
2018-11-05T20:17:48.651Z,9.10
2018-11-05T20:20:19.945Z,9.10
2018-11-05T20:22:48.779Z,9.00
2018-11-05T20:25:17.023Z,9.00
2018-11-05T20:27:45.342Z,9.00
2018-11-05T20:30:17.170Z,9.00
2018-11-05T20:32:46.591Z,8.90
2018-11-05T20:35:14.717Z,8.90
2018-11-05T20:37:44.482Z,8.90
2018-11-05T20:40:14.063Z,8.90
2018-11-05T20:42:43.590Z,8.80
2018-11-05T20:45:12.406Z,8.80
2018-11-05T20:47:40.896Z,8.80
2018-11-05T20:50:10.150Z,8.80
2018-11-05T20:52:39.930Z,8.80
2018-11-05T20:55:09.345Z,8.80
2018-11-05T20:57:37.618Z,8.80
2018-11-05T21:00:07.658Z,8.80
2018-11-05T21:02:35.938Z,8.80
2018-11-05T21:05:04.126Z,8.70
2018-11-05T21:07:32.660Z,8.70
2018-11-05T21:10:00.844Z,8.70
2018-11-05T21:12:29.027Z,8.70
2018-11-05T21:14:57.327Z,8.70
2018-11-05T21:17:25.515Z,8.70
2018-11-05T21:19:53.699Z,8.70
2018-11-05T21:22:22.264Z,8.70
2018-11-05T21:24:50.431Z,8.70
2018-11-05T21:27:18.598Z,8.70
2018-11-05T21:29:46.843Z,8.70
2018-11-05T21:32:15.687Z,8.70
2018-11-05T21:34:43.918Z,8.60
2018-11-05T21:37:12.116Z,8.60
2018-11-05T21:39:40.299Z,8.60
2018-11-05T21:42:08.522Z,8.60
2018-11-05T21:44:37.115Z,8.60
2018-11-05T21:47:05.475Z,8.60
2018-11-05T21:49:33.699Z,8.60
2018-11-05T21:52:01.924Z,8.50
2018-11-05T21:54:30.197Z,8.50
2018-11-05T21:56:58.727Z,8.50
2018-11-05T21:59:26.992Z,8.50
2018-11-05T22:01:55.719Z,8.50
2018-11-05T22:04:23.903Z,8.50
2018-11-05T22:06:52.106Z,8.50
2018-11-05T22:09:20.304Z,8.50
2018-11-05T22:11:48.484Z,8.50
2018-11-05T22:14:16.947Z,8.50
2018-11-05T22:16:45.219Z,8.40
2018-11-05T22:19:13.450Z,8.50
2018-11-05T22:21:42.032Z,8.40
2018-11-05T22:24:10.249Z,8.40
2018-11-05T22:26:38.484Z,8.40
2018-11-05T22:29:07.217Z,8.40
2018-11-05T22:31:35.440Z,8.40
2018-11-05T22:34:03.635Z,8.40
2018-11-05T22:36:31.943Z,8.30
2018-11-05T22:39:00.245Z,8.30
2018-11-05T22:41:28.474Z,8.40
2018-11-05T22:43:56.983Z,8.40
2018-11-05T22:46:25.206Z,8.40
2018-11-05T22:48:53.499Z,8.30
2018-11-05T22:51:21.743Z,8.30
2018-11-05T22:53:49.943Z,8.20
2018-11-05T22:56:18.128Z,8.20
2018-11-05T22:58:46.815Z,8.20
2018-11-05T23:01:20.255Z,8.10
2018-11-05T23:03:48.754Z,8.10
2018-11-05T23:06:16.955Z,8.00
2018-11-05T23:08:45.139Z,8.00
2018-11-05T23:11:13.387Z,8.00
2018-11-05T23:13:41.570Z,8.00
2018-11-05T23:16:09.751Z,8.10
2018-11-05T23:18:38.055Z,8.00
2018-11-05T23:21:06.370Z,8.10
2018-11-05T23:23:34.574Z,8.10
2018-11-05T23:26:03.129Z,8.10
2018-11-05T23:28:31.334Z,8.10
2018-11-05T23:30:59.564Z,8.20
2018-11-05T23:33:28.687Z,8.20
2018-11-05T23:35:56.882Z,8.20
2018-11-05T23:38:25.133Z,8.10
2018-11-05T23:40:54.575Z,8.10
2018-11-05T23:43:22.695Z,8.00
2018-11-05T23:45:50.902Z,8.10
2018-11-05T23:48:19.114Z,8.20
2018-11-05T23:50:47.295Z,8.20
2018-11-05T23:53:15.507Z,8.10
2018-11-05T23:55:44.068Z,8.10
2018-11-05T23:58:12.322Z,8.10
